Angola, Indiana
Current Conditions -  °F | °C
As of 12:55 AM on Saturday 01 Nov 2014 (Local Time) from KANQ Reporting Station
NA  
Wind Chill: 18°   Ceiling: NA
Heat Index: 30°   Visibility: NA
Dew Point: 10°   Wind: 17mph
Humidity: 44%   Direction: 20°NNE
Pressure: 30.16"   Gusts: 26mph
Location:  41.63°N, 85°W
Report Text: KANQ 010455Z AUTO 02015G23KT M01/M12 A3016 RMK
Loading
Personal Weather Stations






























Interactive Weather Map
Tropical Storm Tracking
New forecast layout! Learn more

10-Day Weather Forecast

Advertisements
Track Severe Weather on mobile